sensor_id;sensor_type;location;lat;lon;timestamp;P1;durP1;ratioP1;P2;durP2;ratioP2
20792;SDS011;10556;-33.662;151.094;2023-05-10T00:01:45;1.43;;;0.60;;
20792;SDS011;10556;-33.662;151.094;2023-05-10T00:06:46;0.53;;;0.47;;
20792;SDS011;10556;-33.662;151.094;2023-05-10T00:11:49;2.87;;;0.50;;
20792;SDS011;10556;-33.662;151.094;2023-05-10T00:16:50;2.00;;;0.60;;
20792;SDS011;10556;-33.662;151.094;2023-05-10T00:21:52;1.50;;;0.70;;
20792;SDS011;10556;-33.662;151.094;2023-05-10T00:26:55;1.00;;;0.60;;
20792;SDS011;10556;-33.662;151.094;2023-05-10T00:31:56;4.10;;;0.60;;
20792;SDS011;10556;-33.662;151.094;2023-05-10T00:36:57;1.03;;;0.57;;
20792;SDS011;10556;-33.662;151.094;2023-05-10T00:42:00;0.80;;;0.60;;
20792;SDS011;10556;-33.662;151.094;2023-05-10T00:47:02;0.90;;;0.50;;
20792;SDS011;10556;-33.662;151.094;2023-05-10T00:52:03;0.87;;;0.60;;
20792;SDS011;10556;-33.662;151.094;2023-05-10T00:57:06;1.10;;;0.70;;
20792;SDS011;10556;-33.662;151.094;2023-05-10T01:02:07;1.87;;;0.60;;
20792;SDS011;10556;-33.662;151.094;2023-05-10T01:07:09;0.50;;;0.30;;
20792;SDS011;10556;-33.662;151.094;2023-05-10T01:12:12;0.80;;;0.50;;
20792;SDS011;10556;-33.662;151.094;2023-05-10T01:17:13;0.93;;;0.30;;
20792;SDS011;10556;-33.662;151.094;2023-05-10T01:22:19;0.90;;;0.40;;
20792;SDS011;10556;-33.662;151.094;2023-05-10T01:27:36;1.10;;;0.50;;
20792;SDS011;10556;-33.662;151.094;2023-05-10T01:32:45;0.37;;;0.33;;
20792;SDS011;10556;-33.662;151.094;2023-05-10T01:37:50;0.77;;;0.50;;
20792;SDS011;10556;-33.662;151.094;2023-05-10T01:42:54;0.67;;;0.20;;
20792;SDS011;10556;-33.662;151.094;2023-05-10T01:48:02;0.87;;;0.40;;
20792;SDS011;10556;-33.662;151.094;2023-05-10T01:53:05;0.77;;;0.40;;
20792;SDS011;10556;-33.662;151.094;2023-05-10T01:58:08;1.80;;;0.50;;
20792;SDS011;10556;-33.662;151.094;2023-05-10T02:03:12;1.43;;;0.20;;
20792;SDS011;10556;-33.662;151.094;2023-05-10T02:08:14;1.60;;;0.23;;
20792;SDS011;10556;-33.662;151.094;2023-05-10T02:13:16;0.70;;;0.30;;
20792;SDS011;10556;-33.662;151.094;2023-05-10T02:18:20;1.00;;;0.40;;
20792;SDS011;10556;-33.662;151.094;2023-05-10T02:23:23;0.30;;;0.20;;
20792;SDS011;10556;-33.662;151.094;2023-05-10T02:28:24;0.77;;;0.27;;
20792;SDS011;10556;-33.662;151.094;2023-05-10T02:33:28;1.63;;;0.50;;
20792;SDS011;10556;-33.662;151.094;2023-05-10T02:38:30;0.87;;;0.40;;
20792;SDS011;10556;-33.662;151.094;2023-05-10T02:43:32;0.53;;;0.50;;
20792;SDS011;10556;-33.662;151.094;2023-05-10T02:48:36;2.50;;;0.50;;
20792;SDS011;10556;-33.662;151.094;2023-05-10T02:53:37;0.43;;;0.30;;
20792;SDS011;10556;-33.662;151.094;2023-05-10T02:58:39;0.63;;;0.30;;
20792;SDS011;10556;-33.662;151.094;2023-05-10T03:03:42;0.60;;;0.53;;
20792;SDS011;10556;-33.662;151.094;2023-05-10T03:08:43;0.67;;;0.30;;
20792;SDS011;10556;-33.662;151.094;2023-05-10T03:13:47;0.53;;;0.30;;
20792;SDS011;10556;-33.662;151.094;2023-05-10T03:18:54;0.20;;;0.20;;
20792;SDS011;10556;-33.662;151.094;2023-05-10T03:23:58;0.60;;;0.40;;
20792;SDS011;10556;-33.662;151.094;2023-05-10T03:29:00;0.57;;;0.30;;
20792;SDS011;10556;-33.662;151.094;2023-05-10T03:34:03;0.47;;;0.20;;
20792;SDS011;10556;-33.662;151.094;2023-05-10T03:39:04;1.37;;;0.33;;
20792;SDS011;10556;-33.662;151.094;2023-05-10T03:44:05;0.60;;;0.10;;
20792;SDS011;10556;-33.662;151.094;2023-05-10T03:49:08;1.03;;;0.60;;
20792;SDS011;10556;-33.662;151.094;2023-05-10T03:54:10;0.30;;;0.20;;
20792;SDS011;10556;-33.662;151.094;2023-05-10T03:59:11;1.30;;;0.40;;
20792;SDS011;10556;-33.662;151.094;2023-05-10T04:04:14;0.27;;;0.20;;
20792;SDS011;10556;-33.662;151.094;2023-05-10T04:09:16;0.53;;;0.20;;
20792;SDS011;10556;-33.662;151.094;2023-05-10T04:14:17;1.60;;;0.40;;
20792;SDS011;10556;-33.662;151.094;2023-05-10T04:19:20;0.87;;;0.37;;
20792;SDS011;10556;-33.662;151.094;2023-05-10T04:24:21;2.00;;;0.43;;
20792;SDS011;10556;-33.662;151.094;2023-05-10T04:29:22;0.53;;;0.30;;
20792;SDS011;10556;-33.662;151.094;2023-05-10T04:34:26;0.50;;;0.20;;
20792;SDS011;10556;-33.662;151.094;2023-05-10T04:39:27;1.23;;;0.30;;
20792;SDS011;10556;-33.662;151.094;2023-05-10T04:44:28;0.90;;;0.30;;
20792;SDS011;10556;-33.662;151.094;2023-05-10T04:49:31;1.43;;;0.80;;
20792;SDS011;10556;-33.662;151.094;2023-05-10T04:54:32;2.53;;;0.83;;
20792;SDS011;10556;-33.662;151.094;2023-05-10T04:59:35;2.57;;;1.63;;
20792;SDS011;10556;-33.662;151.094;2023-05-10T05:04:38;2.13;;;1.40;;
20792;SDS011;10556;-33.662;151.094;2023-05-10T05:09:40;2.53;;;0.63;;
20792;SDS011;10556;-33.662;151.094;2023-05-10T05:14:41;1.53;;;0.40;;
20792;SDS011;10556;-33.662;151.094;2023-05-10T05:19:44;0.47;;;0.30;;
20792;SDS011;10556;-33.662;151.094;2023-05-10T05:24:45;0.93;;;0.30;;
20792;SDS011;10556;-33.662;151.094;2023-05-10T05:29:47;1.77;;;0.30;;
20792;SDS011;10556;-33.662;151.094;2023-05-10T05:34:50;0.60;;;0.37;;
20792;SDS011;10556;-33.662;151.094;2023-05-10T05:39:51;0.60;;;0.30;;
20792;SDS011;10556;-33.662;151.094;2023-05-10T05:44:52;3.03;;;0.40;;
20792;SDS011;10556;-33.662;151.094;2023-05-10T05:49:55;1.30;;;0.30;;
20792;SDS011;10556;-33.662;151.094;2023-05-10T05:54:57;0.33;;;0.20;;
20792;SDS011;10556;-33.662;151.094;2023-05-10T05:59:58;3.20;;;0.40;;
20792;SDS011;10556;-33.662;151.094;2023-05-10T06:05:01;0.70;;;0.40;;
20792;SDS011;10556;-33.662;151.094;2023-05-10T06:10:02;1.13;;;0.40;;
20792;SDS011;10556;-33.662;151.094;2023-05-10T06:15:04;0.70;;;0.40;;
20792;SDS011;10556;-33.662;151.094;2023-05-10T06:20:08;0.77;;;0.50;;
20792;SDS011;10556;-33.662;151.094;2023-05-10T06:25:09;1.70;;;0.60;;
20792;SDS011;10556;-33.662;151.094;2023-05-10T06:30:11;1.43;;;0.40;;
20792;SDS011;10556;-33.662;151.094;2023-05-10T06:35:14;1.17;;;0.40;;
20792;SDS011;10556;-33.662;151.094;2023-05-10T06:40:15;1.43;;;0.47;;
20792;SDS011;10556;-33.662;151.094;2023-05-10T06:45:17;1.70;;;0.40;;
20792;SDS011;10556;-33.662;151.094;2023-05-10T06:50:20;0.80;;;0.50;;
20792;SDS011;10556;-33.662;151.094;2023-05-10T06:55:21;1.13;;;0.50;;
20792;SDS011;10556;-33.662;151.094;2023-05-10T07:00:23;1.43;;;0.53;;
20792;SDS011;10556;-33.662;151.094;2023-05-10T07:05:26;1.83;;;0.60;;
20792;SDS011;10556;-33.662;151.094;2023-05-10T07:10:27;0.90;;;0.60;;
20792;SDS011;10556;-33.662;151.094;2023-05-10T07:15:28;1.23;;;0.30;;
20792;SDS011;10556;-33.662;151.094;2023-05-10T07:20:31;1.60;;;0.50;;
20792;SDS011;10556;-33.662;151.094;2023-05-10T07:25:33;1.13;;;0.40;;
20792;SDS011;10556;-33.662;151.094;2023-05-10T07:30:34;1.10;;;0.40;;
20792;SDS011;10556;-33.662;151.094;2023-05-10T07:35:37;1.90;;;0.50;;
20792;SDS011;10556;-33.662;151.094;2023-05-10T07:40:38;2.30;;;0.60;;
20792;SDS011;10556;-33.662;151.094;2023-05-10T07:45:39;1.10;;;0.40;;
20792;SDS011;10556;-33.662;151.094;2023-05-10T07:50:43;1.00;;;0.50;;
20792;SDS011;10556;-33.662;151.094;2023-05-10T07:55:44;2.90;;;0.70;;
20792;SDS011;10556;-33.662;151.094;2023-05-10T08:00:45;1.43;;;0.63;;
20792;SDS011;10556;-33.662;151.094;2023-05-10T08:05:48;1.80;;;0.60;;
20792;SDS011;10556;-33.662;151.094;2023-05-10T08:10:49;2.33;;;0.80;;
20792;SDS011;10556;-33.662;151.094;2023-05-10T08:15:51;1.43;;;0.70;;
20792;SDS011;10556;-33.662;151.094;2023-05-10T08:20:54;2.37;;;1.07;;
20792;SDS011;10556;-33.662;151.094;2023-05-10T08:25:55;2.97;;;0.80;;
20792;SDS011;10556;-33.662;151.094;2023-05-10T08:30:56;3.03;;;0.80;;
20792;SDS011;10556;-33.662;151.094;2023-05-10T08:35:59;5.53;;;0.70;;
20792;SDS011;10556;-33.662;151.094;2023-05-10T08:41:01;3.00;;;1.10;;
20792;SDS011;10556;-33.662;151.094;2023-05-10T08:46:02;2.70;;;0.80;;
20792;SDS011;10556;-33.662;151.094;2023-05-10T08:51:07;1.83;;;0.90;;
20792;SDS011;10556;-33.662;151.094;2023-05-10T08:56:10;3.23;;;0.70;;
20792;SDS011;10556;-33.662;151.094;2023-05-10T09:01:11;2.53;;;1.00;;
20792;SDS011;10556;-33.662;151.094;2023-05-10T09:06:15;1.53;;;0.77;;
20792;SDS011;10556;-33.662;151.094;2023-05-10T09:11:16;1.53;;;0.70;;
20792;SDS011;10556;-33.662;151.094;2023-05-10T09:16:18;1.77;;;0.87;;
20792;SDS011;10556;-33.662;151.094;2023-05-10T09:21:21;1.93;;;0.80;;
20792;SDS011;10556;-33.662;151.094;2023-05-10T09:26:22;3.37;;;1.00;;
20792;SDS011;10556;-33.662;151.094;2023-05-10T09:31:24;1.90;;;1.00;;
20792;SDS011;10556;-33.662;151.094;2023-05-10T09:36:27;5.17;;;1.10;;
20792;SDS011;10556;-33.662;151.094;2023-05-10T09:41:28;2.60;;;0.80;;
20792;SDS011;10556;-33.662;151.094;2023-05-10T09:46:29;4.40;;;0.90;;
20792;SDS011;10556;-33.662;151.094;2023-05-10T09:51:37;4.20;;;0.97;;
20792;SDS011;10556;-33.662;151.094;2023-05-10T09:56:38;1.37;;;0.60;;
20792;SDS011;10556;-33.662;151.094;2023-05-10T10:01:40;2.70;;;1.40;;
20792;SDS011;10556;-33.662;151.094;2023-05-10T10:06:43;4.80;;;0.80;;
20792;SDS011;10556;-33.662;151.094;2023-05-10T10:11:44;5.93;;;1.20;;
20792;SDS011;10556;-33.662;151.094;2023-05-10T10:16:46;5.07;;;1.47;;
20792;SDS011;10556;-33.662;151.094;2023-05-10T10:21:49;4.50;;;1.10;;
20792;SDS011;10556;-33.662;151.094;2023-05-10T10:26:50;2.90;;;1.00;;
20792;SDS011;10556;-33.662;151.094;2023-05-10T10:31:55;2.33;;;1.10;;
20792;SDS011;10556;-33.662;151.094;2023-05-10T10:37:03;3.67;;;0.90;;
20792;SDS011;10556;-33.662;151.094;2023-05-10T10:42:05;3.60;;;1.57;;
20792;SDS011;10556;-33.662;151.094;2023-05-10T10:52:27;1.93;;;0.93;;
20792;SDS011;10556;-33.662;151.094;2023-05-10T10:57:30;2.63;;;0.90;;
20792;SDS011;10556;-33.662;151.094;2023-05-10T11:02:36;1.77;;;0.87;;
20792;SDS011;10556;-33.662;151.094;2023-05-10T11:07:53;4.07;;;2.50;;
20792;SDS011;10556;-33.662;151.094;2023-05-10T11:12:59;11.90;;;4.03;;
20792;SDS011;10556;-33.662;151.094;2023-05-10T11:18:01;5.47;;;2.93;;
20792;SDS011;10556;-33.662;151.094;2023-05-10T11:23:18;4.90;;;2.37;;
20792;SDS011;10556;-33.662;151.094;2023-05-10T11:28:19;3.27;;;2.80;;
20792;SDS011;10556;-33.662;151.094;2023-05-10T11:33:21;5.47;;;3.13;;
20792;SDS011;10556;-33.662;151.094;2023-05-10T11:38:24;7.33;;;4.40;;
20792;SDS011;10556;-33.662;151.094;2023-05-10T11:43:25;5.80;;;2.67;;
20792;SDS011;10556;-33.662;151.094;2023-05-10T11:48:28;6.57;;;1.60;;
20792;SDS011;10556;-33.662;151.094;2023-05-10T11:53:32;3.90;;;1.27;;
20792;SDS011;10556;-33.662;151.094;2023-05-10T11:58:33;2.67;;;1.00;;
20792;SDS011;10556;-33.662;151.094;2023-05-10T12:03:35;2.70;;;1.20;;
20792;SDS011;10556;-33.662;151.094;2023-05-10T12:08:43;3.50;;;1.20;;
20792;SDS011;10556;-33.662;151.094;2023-05-10T12:13:45;2.73;;;1.30;;
20792;SDS011;10556;-33.662;151.094;2023-05-10T12:18:48;7.70;;;1.77;;
20792;SDS011;10556;-33.662;151.094;2023-05-10T12:23:51;5.17;;;1.43;;
20792;SDS011;10556;-33.662;151.094;2023-05-10T12:28:53;9.03;;;2.37;;
20792;SDS011;10556;-33.662;151.094;2023-05-10T12:33:54;5.17;;;2.83;;
20792;SDS011;10556;-33.662;151.094;2023-05-10T12:39:00;5.97;;;2.33;;
20792;SDS011;10556;-33.662;151.094;2023-05-10T12:44:03;5.60;;;1.60;;
20792;SDS011;10556;-33.662;151.094;2023-05-10T12:49:04;4.83;;;1.70;;
20792;SDS011;10556;-33.662;151.094;2023-05-10T12:54:07;3.30;;;1.83;;
20792;SDS011;10556;-33.662;151.094;2023-05-10T12:59:08;4.73;;;1.60;;
20792;SDS011;10556;-33.662;151.094;2023-05-10T13:04:09;7.20;;;2.53;;
20792;SDS011;10556;-33.662;151.094;2023-05-10T13:09:12;4.07;;;1.83;;
20792;SDS011;10556;-33.662;151.094;2023-05-10T13:14:14;6.50;;;2.50;;
20792;SDS011;10556;-33.662;151.094;2023-05-10T13:19:15;10.27;;;2.27;;
20792;SDS011;10556;-33.662;151.094;2023-05-10T13:24:21;5.03;;;1.80;;
20792;SDS011;10556;-33.662;151.094;2023-05-10T13:29:22;6.10;;;2.00;;
20792;SDS011;10556;-33.662;151.094;2023-05-10T13:34:23;4.03;;;1.63;;
20792;SDS011;10556;-33.662;151.094;2023-05-10T13:39:26;6.63;;;2.47;;
20792;SDS011;10556;-33.662;151.094;2023-05-10T13:44:28;5.80;;;1.80;;
20792;SDS011;10556;-33.662;151.094;2023-05-10T13:49:29;3.53;;;2.50;;
20792;SDS011;10556;-33.662;151.094;2023-05-10T13:54:32;5.07;;;2.43;;
20792;SDS011;10556;-33.662;151.094;2023-05-10T13:59:33;4.57;;;2.33;;
20792;SDS011;10556;-33.662;151.094;2023-05-10T14:04:35;5.30;;;2.37;;
20792;SDS011;10556;-33.662;151.094;2023-05-10T14:09:38;6.83;;;1.90;;
20792;SDS011;10556;-33.662;151.094;2023-05-10T14:14:39;3.33;;;1.60;;
20792;SDS011;10556;-33.662;151.094;2023-05-10T14:19:40;8.20;;;1.90;;
20792;SDS011;10556;-33.662;151.094;2023-05-10T14:24:43;7.13;;;2.80;;
20792;SDS011;10556;-33.662;151.094;2023-05-10T14:29:45;5.47;;;1.93;;
20792;SDS011;10556;-33.662;151.094;2023-05-10T14:34:46;11.77;;;5.00;;
20792;SDS011;10556;-33.662;151.094;2023-05-10T14:39:49;12.73;;;5.87;;
20792;SDS011;10556;-33.662;151.094;2023-05-10T14:44:50;6.07;;;2.67;;
20792;SDS011;10556;-33.662;151.094;2023-05-10T14:49:51;4.40;;;1.40;;
20792;SDS011;10556;-33.662;151.094;2023-05-10T14:54:54;6.50;;;2.20;;
20792;SDS011;10556;-33.662;151.094;2023-05-10T14:59:56;3.93;;;1.53;;
20792;SDS011;10556;-33.662;151.094;2023-05-10T15:04:57;2.77;;;1.10;;
20792;SDS011;10556;-33.662;151.094;2023-05-10T15:10:00;6.17;;;1.50;;
20792;SDS011;10556;-33.662;151.094;2023-05-10T15:15:01;4.33;;;1.70;;
20792;SDS011;10556;-33.662;151.094;2023-05-10T15:20:03;3.53;;;1.27;;
20792;SDS011;10556;-33.662;151.094;2023-05-10T15:25:06;4.53;;;1.27;;
20792;SDS011;10556;-33.662;151.094;2023-05-10T15:30:08;4.37;;;1.10;;
20792;SDS011;10556;-33.662;151.094;2023-05-10T15:35:09;1.67;;;1.20;;
20792;SDS011;10556;-33.662;151.094;2023-05-10T15:40:13;3.13;;;1.20;;
20792;SDS011;10556;-33.662;151.094;2023-05-10T15:45:14;4.33;;;1.43;;
20792;SDS011;10556;-33.662;151.094;2023-05-10T15:50:16;2.17;;;1.20;;
20792;SDS011;10556;-33.662;151.094;2023-05-10T15:55:19;4.03;;;1.50;;
20792;SDS011;10556;-33.662;151.094;2023-05-10T16:00:21;7.47;;;1.80;;
20792;SDS011;10556;-33.662;151.094;2023-05-10T16:05:22;2.40;;;1.27;;
20792;SDS011;10556;-33.662;151.094;2023-05-10T16:10:25;4.30;;;1.50;;
20792;SDS011;10556;-33.662;151.094;2023-05-10T16:15:26;2.50;;;1.20;;
20792;SDS011;10556;-33.662;151.094;2023-05-10T16:20:28;3.53;;;1.57;;
20792;SDS011;10556;-33.662;151.094;2023-05-10T16:25:31;4.03;;;1.30;;
20792;SDS011;10556;-33.662;151.094;2023-05-10T16:30:32;3.17;;;1.20;;
20792;SDS011;10556;-33.662;151.094;2023-05-10T16:35:34;2.40;;;1.00;;
20792;SDS011;10556;-33.662;151.094;2023-05-10T16:40:37;6.33;;;1.27;;
20792;SDS011;10556;-33.662;151.094;2023-05-10T16:45:38;1.87;;;1.10;;
20792;SDS011;10556;-33.662;151.094;2023-05-10T16:50:42;2.23;;;1.00;;
20792;SDS011;10556;-33.662;151.094;2023-05-10T16:55:45;2.00;;;0.90;;
20792;SDS011;10556;-33.662;151.094;2023-05-10T17:00:46;2.60;;;1.00;;
20792;SDS011;10556;-33.662;151.094;2023-05-10T17:05:47;2.80;;;1.17;;
20792;SDS011;10556;-33.662;151.094;2023-05-10T17:10:51;4.10;;;0.90;;
20792;SDS011;10556;-33.662;151.094;2023-05-10T17:15:52;2.20;;;0.83;;
20792;SDS011;10556;-33.662;151.094;2023-05-10T17:20:53;2.10;;;0.87;;
20792;SDS011;10556;-33.662;151.094;2023-05-10T17:25:56;2.60;;;0.80;;
20792;SDS011;10556;-33.662;151.094;2023-05-10T17:30:57;2.47;;;0.73;;
20792;SDS011;10556;-33.662;151.094;2023-05-10T17:35:59;3.03;;;0.80;;
20792;SDS011;10556;-33.662;151.094;2023-05-10T17:41:02;4.03;;;1.70;;
20792;SDS011;10556;-33.662;151.094;2023-05-10T17:46:03;3.53;;;0.90;;
20792;SDS011;10556;-33.662;151.094;2023-05-10T17:51:05;5.37;;;1.00;;
20792;SDS011;10556;-33.662;151.094;2023-05-10T17:56:08;1.73;;;0.87;;
20792;SDS011;10556;-33.662;151.094;2023-05-10T18:01:09;2.20;;;0.80;;
20792;SDS011;10556;-33.662;151.094;2023-05-10T18:06:11;6.20;;;0.90;;
20792;SDS011;10556;-33.662;151.094;2023-05-10T18:11:14;2.40;;;0.90;;
20792;SDS011;10556;-33.662;151.094;2023-05-10T18:16:15;2.13;;;0.50;;
20792;SDS011;10556;-33.662;151.094;2023-05-10T18:21:16;2.17;;;0.73;;
20792;SDS011;10556;-33.662;151.094;2023-05-10T18:26:19;4.20;;;1.20;;
20792;SDS011;10556;-33.662;151.094;2023-05-10T18:31:20;1.57;;;0.70;;
20792;SDS011;10556;-33.662;151.094;2023-05-10T18:36:22;1.60;;;0.90;;
20792;SDS011;10556;-33.662;151.094;2023-05-10T18:41:25;1.63;;;0.77;;
20792;SDS011;10556;-33.662;151.094;2023-05-10T18:46:26;2.90;;;1.40;;
20792;SDS011;10556;-33.662;151.094;2023-05-10T18:51:27;4.20;;;0.80;;
20792;SDS011;10556;-33.662;151.094;2023-05-10T18:56:30;3.00;;;1.37;;
20792;SDS011;10556;-33.662;151.094;2023-05-10T19:01:32;2.60;;;1.10;;
20792;SDS011;10556;-33.662;151.094;2023-05-10T19:06:33;2.63;;;1.10;;
20792;SDS011;10556;-33.662;151.094;2023-05-10T19:11:36;5.13;;;1.00;;
20792;SDS011;10556;-33.662;151.094;2023-05-10T19:16:38;2.57;;;1.23;;
20792;SDS011;10556;-33.662;151.094;2023-05-10T19:21:39;4.70;;;0.93;;
20792;SDS011;10556;-33.662;151.094;2023-05-10T19:26:42;1.27;;;0.80;;
20792;SDS011;10556;-33.662;151.094;2023-05-10T19:31:43;1.77;;;0.80;;
20792;SDS011;10556;-33.662;151.094;2023-05-10T19:36:44;5.10;;;0.80;;
20792;SDS011;10556;-33.662;151.094;2023-05-10T19:41:48;1.03;;;0.60;;
20792;SDS011;10556;-33.662;151.094;2023-05-10T19:46:49;2.87;;;0.93;;
20792;SDS011;10556;-33.662;151.094;2023-05-10T19:51:50;1.40;;;0.60;;
20792;SDS011;10556;-33.662;151.094;2023-05-10T19:56:53;1.20;;;0.90;;
20792;SDS011;10556;-33.662;151.094;2023-05-10T20:01:54;2.50;;;0.80;;
20792;SDS011;10556;-33.662;151.094;2023-05-10T20:06:56;3.73;;;0.87;;
20792;SDS011;10556;-33.662;151.094;2023-05-10T20:11:59;3.47;;;0.70;;
20792;SDS011;10556;-33.662;151.094;2023-05-10T20:17:00;1.50;;;0.80;;
20792;SDS011;10556;-33.662;151.094;2023-05-10T20:22:02;3.07;;;0.80;;
20792;SDS011;10556;-33.662;151.094;2023-05-10T20:27:05;2.73;;;1.20;;
20792;SDS011;10556;-33.662;151.094;2023-05-10T20:32:06;4.33;;;0.80;;
20792;SDS011;10556;-33.662;151.094;2023-05-10T20:37:07;1.43;;;0.60;;
20792;SDS011;10556;-33.662;151.094;2023-05-10T20:42:11;3.80;;;0.70;;
20792;SDS011;10556;-33.662;151.094;2023-05-10T20:47:12;1.40;;;0.70;;
20792;SDS011;10556;-33.662;151.094;2023-05-10T20:52:14;3.73;;;0.97;;
20792;SDS011;10556;-33.662;151.094;2023-05-10T20:57:17;2.00;;;0.87;;
20792;SDS011;10556;-33.662;151.094;2023-05-10T21:02:18;2.30;;;0.70;;
20792;SDS011;10556;-33.662;151.094;2023-05-10T21:07:19;3.77;;;0.97;;
20792;SDS011;10556;-33.662;151.094;2023-05-10T21:12:23;2.00;;;1.20;;
20792;SDS011;10556;-33.662;151.094;2023-05-10T21:17:24;3.97;;;1.50;;
20792;SDS011;10556;-33.662;151.094;2023-05-10T21:22:25;2.17;;;0.83;;
20792;SDS011;10556;-33.662;151.094;2023-05-10T21:27:28;1.37;;;0.60;;
20792;SDS011;10556;-33.662;151.094;2023-05-10T21:32:29;6.67;;;0.90;;
20792;SDS011;10556;-33.662;151.094;2023-05-10T21:37:31;2.40;;;0.90;;
20792;SDS011;10556;-33.662;151.094;2023-05-10T21:42:34;3.43;;;0.70;;
20792;SDS011;10556;-33.662;151.094;2023-05-10T21:47:35;2.47;;;0.90;;
20792;SDS011;10556;-33.662;151.094;2023-05-10T21:52:36;2.17;;;0.80;;
20792;SDS011;10556;-33.662;151.094;2023-05-10T21:57:39;1.30;;;0.50;;
20792;SDS011;10556;-33.662;151.094;2023-05-10T22:02:41;3.60;;;1.00;;
20792;SDS011;10556;-33.662;151.094;2023-05-10T22:07:42;2.70;;;0.70;;
20792;SDS011;10556;-33.662;151.094;2023-05-10T22:12:45;1.77;;;0.90;;
20792;SDS011;10556;-33.662;151.094;2023-05-10T22:17:46;0.70;;;0.60;;
20792;SDS011;10556;-33.662;151.094;2023-05-10T22:22:48;1.60;;;0.60;;
20792;SDS011;10556;-33.662;151.094;2023-05-10T22:27:51;1.17;;;0.83;;
20792;SDS011;10556;-33.662;151.094;2023-05-10T22:32:52;2.37;;;0.60;;
20792;SDS011;10556;-33.662;151.094;2023-05-10T22:37:53;1.87;;;0.50;;
20792;SDS011;10556;-33.662;151.094;2023-05-10T22:42:56;1.57;;;0.37;;
20792;SDS011;10556;-33.662;151.094;2023-05-10T22:47:58;1.07;;;0.33;;
20792;SDS011;10556;-33.662;151.094;2023-05-10T22:52:59;0.60;;;0.43;;
20792;SDS011;10556;-33.662;151.094;2023-05-10T22:58:02;1.17;;;0.60;;
20792;SDS011;10556;-33.662;151.094;2023-05-10T23:03:04;0.77;;;0.33;;
20792;SDS011;10556;-33.662;151.094;2023-05-10T23:08:05;1.70;;;0.40;;
20792;SDS011;10556;-33.662;151.094;2023-05-10T23:13:08;0.83;;;0.50;;
20792;SDS011;10556;-33.662;151.094;2023-05-10T23:18:09;0.40;;;0.30;;
20792;SDS011;10556;-33.662;151.094;2023-05-10T23:23:10;1.07;;;0.60;;
20792;SDS011;10556;-33.662;151.094;2023-05-10T23:28:13;1.40;;;0.50;;
20792;SDS011;10556;-33.662;151.094;2023-05-10T23:33:15;2.40;;;0.70;;
20792;SDS011;10556;-33.662;151.094;2023-05-10T23:38:16;2.47;;;0.60;;
20792;SDS011;10556;-33.662;151.094;2023-05-10T23:43:19;4.57;;;0.70;;
20792;SDS011;10556;-33.662;151.094;2023-05-10T23:48:20;1.47;;;0.70;;
20792;SDS011;10556;-33.662;151.094;2023-05-10T23:53:22;2.27;;;0.60;;
20792;SDS011;10556;-33.662;151.094;2023-05-10T23:58:25;3.20;;;0.83;;
